Time;durP1;ratioP1;P1;durP2;ratioP2;P2;SDS_P1;SDS_P2;PMS_P1;PMS_P2;Temp;Humidity;BMP_temperature;BMP_pressure;BME280_temperature;BME280_humidity;BME280_pressure;Samples;Min_cycle;Max_cycle;Signal;HPM_P1;HPM_P2
2022/04/24 00:00:09;;;;;;;42.63;27.53;;;;;;;;;;5041655;28;20422;-85
2022/04/24 00:02:35;;;;;;;48.53;31.20;;;;;;;;;;5024171;28;20801;-85
2022/04/24 00:05:02;;;;;;;44.40;29.63;;;;;;;;;;5042927;28;20403;-86
2022/04/24 00:07:29;;;;;;;44.67;31.27;;;;;;;;;;5042829;28;20431;-84
2022/04/24 00:09:56;;;;;;;46.13;29.43;;;;;;;;;;5041837;28;20426;-85
2022/04/24 00:12:22;;;;;;;45.33;31.13;;;;;;;;;;5041308;28;20442;-83
2022/04/24 00:14:48;;;;;;;48.47;29.47;;;;;;;;;;5041116;28;20402;-84
2022/04/24 00:17:20;;;;;;;48.63;30.80;;;;;;;;;;5041327;28;20402;-86
2022/04/24 00:19:46;;;;;;;43.90;28.90;;;;;;;;;;5041247;28;20784;-84
2022/04/24 00:22:12;;;;;;;44.40;30.03;;;;;;;;;;5041353;28;20411;-85
2022/04/24 00:24:38;;;;;;;45.20;30.17;;;;;;;;;;5041236;28;20430;-85
2022/04/24 00:27:07;;;;;;;47.87;30.93;;;;;;;;;;5022860;28;20413;-85
2022/04/24 00:29:33;;;;;;;47.53;30.43;;;;;;;;;;5040780;28;20403;-85
2022/04/24 00:31:59;;;;;;;44.83;29.90;;;;;;;;;;5040849;28;20950;-85
2022/04/24 00:34:25;;;;;;;47.30;32.00;;;;;;;;;;5040910;28;20464;-85
2022/04/24 00:36:51;;;;;;;46.17;31.40;;;;;;;;;;5040448;28;20470;-85
2022/04/24 00:39:17;;;;;;;47.03;30.07;;;;;;;;;;5040838;28;20413;-85
2022/04/24 00:41:50;;;;;;;46.70;31.20;;;;;;;;;;5040259;28;20422;-85
2022/04/24 00:44:17;;;;;;;49.33;32.70;;;;;;;;;;5022877;28;20505;-85
2022/04/24 00:46:44;;;;;;;54.17;32.30;;;;;;;;;;5040690;28;20433;-84
2022/04/24 00:49:10;;;;;;;39.13;27.53;;;;;;;;;;5040848;28;20411;-85
2022/04/24 00:51:38;;;;;;;49.50;31.57;;;;;;;;;;5022724;28;20437;-84
2022/04/24 00:54:08;;;;;;;43.57;30.03;;;;;;;;;;5041455;28;20403;-84
2022/04/24 00:56:35;;;;;;;47.83;29.80;;;;;;;;;;5041505;28;20435;-84
2022/04/24 00:59:03;;;;;;;42.67;28.63;;;;;;;;;;5041085;28;20450;-84
2022/04/24 01:01:29;;;;;;;48.00;30.63;;;;;;;;;;5040519;28;20813;-84
2022/04/24 01:03:59;;;;;;;45.93;29.43;;;;;;;;;;5056447;28;20419;-84
2022/04/24 01:06:25;;;;;;;46.27;30.23;;;;;;;;;;5050450;28;20425;-84
2022/04/24 01:08:51;;;;;;;46.70;28.13;;;;;;;;;;5024533;28;20503;-85
2022/04/24 01:11:17;;;;;;;46.10;31.03;;;;;;;;;;5040279;28;20422;-85
2022/04/24 01:13:43;;;;;;;41.37;29.77;;;;;;;;;;5050073;28;20453;-85
2022/04/24 01:16:10;;;;;;;46.70;30.90;;;;;;;;;;5059944;28;20812;-85
2022/04/24 01:18:36;;;;;;;41.23;29.00;;;;;;;;;;5059981;28;20401;-85
2022/04/24 01:21:09;;;;;;;43.43;28.87;;;;;;;;;;5080778;22;20494;-87
2022/04/24 01:23:38;;;;;;;41.80;27.47;;;;;;;;;;5048917;28;20417;-87
2022/04/24 01:26:04;;;;;;;40.80;28.73;;;;;;;;;;5029369;28;20993;-86
2022/04/24 01:28:30;;;;;;;48.23;29.70;;;;;;;;;;5045918;28;20463;-87
2022/04/24 01:30:56;;;;;;;39.30;28.50;;;;;;;;;;5023565;28;20514;-86
2022/04/24 01:33:22;;;;;;;41.37;29.03;;;;;;;;;;5023161;28;20578;-86
2022/04/24 01:35:48;;;;;;;46.50;30.80;;;;;;;;;;5022122;28;20411;-87
2022/04/24 01:38:14;;;;;;;48.17;30.67;;;;;;;;;;5021465;28;20399;-86
2022/04/24 01:40:40;;;;;;;49.07;31.20;;;;;;;;;;5019531;28;20431;-86
2022/04/24 01:43:07;;;;;;;46.50;32.57;;;;;;;;;;5022119;28;20407;-85
2022/04/24 01:45:33;;;;;;;45.00;32.80;;;;;;;;;;5023463;28;20407;-86
2022/04/24 01:47:59;;;;;;;40.60;27.70;;;;;;;;;;5022589;28;20788;-86
2022/04/24 01:50:25;;;;;;;45.80;31.30;;;;;;;;;;5022142;28;20466;-87
2022/04/24 01:52:51;;;;;;;41.00;28.37;;;;;;;;;;5023921;28;20459;-86
2022/04/24 01:55:18;;;;;;;43.23;30.03;;;;;;;;;;5023166;28;20429;-86
2022/04/24 01:57:44;;;;;;;47.47;32.10;;;;;;;;;;5025250;28;20400;-86
2022/04/24 02:00:10;;;;;;;48.10;31.63;;;;;;;;;;5027795;28;20427;-86
2022/04/24 02:02:36;;;;;;;41.17;29.27;;;;;;;;;;5026896;28;20498;-87
2022/04/24 02:05:02;;;;;;;44.87;30.20;;;;;;;;;;5027345;28;20403;-86
2022/04/24 02:07:28;;;;;;;40.83;29.20;;;;;;;;;;5026433;28;20411;-87
2022/04/24 02:09:55;;;;;;;42.60;30.37;;;;;;;;;;5027571;28;20770;-86
2022/04/24 02:12:21;;;;;;;42.20;29.63;;;;;;;;;;5027981;28;20481;-86
2022/04/24 02:14:47;;;;;;;44.60;30.30;;;;;;;;;;5028797;28;20498;-87
2022/04/24 02:17:13;;;;;;;41.17;27.93;;;;;;;;;;5028422;28;20402;-87
2022/04/24 02:19:39;;;;;;;42.97;28.03;;;;;;;;;;5027481;28;20407;-87
2022/04/24 02:22:05;;;;;;;46.20;30.70;;;;;;;;;;5026310;28;20438;-87
2022/04/24 02:24:31;;;;;;;44.37;28.90;;;;;;;;;;5024150;28;20407;-87
2022/04/24 02:26:57;;;;;;;42.57;30.33;;;;;;;;;;5026391;28;20825;-87
2022/04/24 02:29:27;;;;;;;45.03;31.60;;;;;;;;;;5026555;28;20429;-87
2022/04/24 02:31:53;;;;;;;45.67;29.93;;;;;;;;;;5025717;28;20454;-86
2022/04/24 02:34:19;;;;;;;45.30;31.70;;;;;;;;;;5026730;28;20431;-86
2022/04/24 02:36:45;;;;;;;43.80;31.13;;;;;;;;;;5027089;28;20416;-86
2022/04/24 02:39:11;;;;;;;48.73;32.70;;;;;;;;;;5027235;28;20437;-86
2022/04/24 02:41:37;;;;;;;49.00;32.60;;;;;;;;;;5028495;28;20431;-86
2022/04/24 02:44:03;;;;;;;45.67;31.13;;;;;;;;;;5026729;28;20919;-86
2022/04/24 02:46:29;;;;;;;43.53;30.93;;;;;;;;;;5027452;28;20448;-87
2022/04/24 02:48:55;;;;;;;45.27;30.67;;;;;;;;;;5027530;28;20407;-87
2022/04/24 02:51:22;;;;;;;51.10;33.30;;;;;;;;;;5027713;28;20446;-87
2022/04/24 02:53:48;;;;;;;50.10;33.80;;;;;;;;;;5023324;28;20454;-85
2022/04/24 02:56:14;;;;;;;49.63;34.50;;;;;;;;;;5020226;28;20795;-86
2022/04/24 02:58:40;;;;;;;54.00;35.20;;;;;;;;;;5036900;28;20407;-86
2022/04/24 03:01:06;;;;;;;47.00;32.27;;;;;;;;;;5039086;28;20416;-85
2022/04/24 03:03:32;;;;;;;48.37;32.40;;;;;;;;;;5039742;28;20449;-87
2022/04/24 03:05:59;;;;;;;46.97;33.07;;;;;;;;;;5038974;28;20418;-85
2022/04/24 03:08:25;;;;;;;47.17;32.80;;;;;;;;;;5039366;28;20407;-86
2022/04/24 03:10:51;;;;;;;49.97;30.73;;;;;;;;;;5039641;28;20443;-85
2022/04/24 03:13:18;;;;;;;47.60;32.53;;;;;;;;;;5039247;28;20533;-85
2022/04/24 03:15:44;;;;;;;47.43;30.87;;;;;;;;;;5039909;28;20460;-86
2022/04/24 03:18:10;;;;;;;49.47;32.20;;;;;;;;;;5040247;28;20399;-86
2022/04/24 03:20:36;;;;;;;51.47;34.57;;;;;;;;;;5039768;28;20435;-86
2022/04/24 03:23:02;;;;;;;51.03;34.07;;;;;;;;;;5039804;28;20400;-86
2022/04/24 03:25:28;;;;;;;55.93;35.93;;;;;;;;;;5039933;28;20399;-86
2022/04/24 03:27:54;;;;;;;47.67;33.77;;;;;;;;;;5039943;28;20491;-85
2022/04/24 03:30:21;;;;;;;51.93;34.30;;;;;;;;;;5039824;28;20433;-86
2022/04/24 03:32:48;;;;;;;51.50;34.13;;;;;;;;;;5038804;28;20482;-86
2022/04/24 03:35:14;;;;;;;50.03;32.97;;;;;;;;;;5039614;28;20396;-86
2022/04/24 03:37:41;;;;;;;50.93;34.53;;;;;;;;;;5039664;28;20456;-86
2022/04/24 03:40:08;;;;;;;56.23;31.93;;;;;;;;;;5039667;28;20435;-85
2022/04/24 03:42:35;;;;;;;59.80;36.30;;;;;;;;;;5039623;28;20403;-86
2022/04/24 03:45:01;;;;;;;49.37;32.90;;;;;;;;;;5055252;28;20432;-86
2022/04/24 03:47:28;;;;;;;52.80;35.13;;;;;;;;;;5059373;28;20403;-86
2022/04/24 03:49:54;;;;;;;49.50;33.63;;;;;;;;;;5059322;28;20406;-86
2022/04/24 03:52:20;;;;;;;58.97;37.20;;;;;;;;;;5059133;28;20520;-86
2022/04/24 03:54:46;;;;;;;51.63;35.23;;;;;;;;;;5059505;28;20454;-86
2022/04/24 03:57:12;;;;;;;52.60;35.50;;;;;;;;;;5042131;28;20429;-86
2022/04/24 03:59:39;;;;;;;57.13;36.10;;;;;;;;;;5059409;28;20406;-86
2022/04/24 04:02:05;;;;;;;55.93;34.87;;;;;;;;;;5059104;28;20407;-86
2022/04/24 04:04:31;;;;;;;58.90;35.83;;;;;;;;;;5037340;28;20419;-86
2022/04/24 04:06:57;;;;;;;56.10;34.40;;;;;;;;;;5053690;28;20412;-87
2022/04/24 04:09:24;;;;;;;58.17;36.33;;;;;;;;;;5058644;28;20465;-87
2022/04/24 04:11:50;;;;;;;54.40;36.60;;;;;;;;;;5041003;28;20454;-86
2022/04/24 04:14:16;;;;;;;58.27;35.30;;;;;;;;;;5057088;28;20410;-86
2022/04/24 04:16:42;;;;;;;60.23;37.70;;;;;;;;;;5041681;28;20439;-85
2022/04/24 04:19:08;;;;;;;58.50;37.00;;;;;;;;;;5058328;28;20418;-87
2022/04/24 04:21:34;;;;;;;58.40;37.00;;;;;;;;;;5040364;28;20561;-87
2022/04/24 04:24:00;;;;;;;54.37;34.97;;;;;;;;;;5058927;28;20394;-88
2022/04/24 04:26:26;;;;;;;57.87;35.50;;;;;;;;;;5058878;28;21290;-87
2022/04/24 04:28:53;;;;;;;52.10;34.60;;;;;;;;;;5058950;28;20483;-87
2022/04/24 04:31:19;;;;;;;49.67;34.80;;;;;;;;;;5058826;28;20436;-87
2022/04/24 04:33:45;;;;;;;54.93;34.47;;;;;;;;;;5058746;28;20442;-88
2022/04/24 04:36:11;;;;;;;51.63;33.70;;;;;;;;;;5058854;28;20390;-88
2022/04/24 04:38:37;;;;;;;51.73;32.40;;;;;;;;;;5058686;28;20414;-87
2022/04/24 04:41:04;;;;;;;52.33;32.37;;;;;;;;;;5058527;28;20448;-86
2022/04/24 04:43:30;;;;;;;54.50;34.20;;;;;;;;;;5058648;28;20410;-86
2022/04/24 04:45:56;;;;;;;46.20;29.50;;;;;;;;;;5058626;28;20473;-88
2022/04/24 04:48:23;;;;;;;46.27;30.30;;;;;;;;;;5041458;28;20430;-88
2022/04/24 04:50:49;;;;;;;45.23;29.23;;;;;;;;;;5058592;28;20456;-87
2022/04/24 04:53:15;;;;;;;41.63;29.70;;;;;;;;;;5041243;28;20457;-86
2022/04/24 04:55:42;;;;;;;39.93;26.80;;;;;;;;;;5058463;28;20466;-87
2022/04/24 04:58:08;;;;;;;44.80;29.07;;;;;;;;;;5041169;28;20403;-86
2022/04/24 05:00:34;;;;;;;40.60;27.07;;;;;;;;;;5058273;28;20425;-87
2022/04/24 05:03:00;;;;;;;37.80;25.67;;;;;;;;;;5058226;28;20391;-86
2022/04/24 05:05:26;;;;;;;32.43;23.90;;;;;;;;;;5041103;28;20414;-87
2022/04/24 05:07:52;;;;;;;37.23;26.17;;;;;;;;;;5058253;28;20406;-86
2022/04/24 05:10:18;;;;;;;41.80;27.97;;;;;;;;;;5058076;28;20418;-86
2022/04/24 05:12:45;;;;;;;33.33;23.67;;;;;;;;;;5058120;28;20473;-87
2022/04/24 05:15:13;;;;;;;35.83;25.30;;;;;;;;;;5057963;28;20387;-87
2022/04/24 05:17:39;;;;;;;36.83;24.60;;;;;;;;;;5058080;28;20394;-87
2022/04/24 05:20:06;;;;;;;35.60;24.47;;;;;;;;;;5057700;28;20461;-87
2022/04/24 05:22:32;;;;;;;34.63;24.20;;;;;;;;;;5057938;28;20502;-87
2022/04/24 05:24:59;;;;;;;36.97;24.57;;;;;;;;;;5057727;28;20387;-87
2022/04/24 05:27:25;;;;;;;34.67;23.43;;;;;;;;;;5057787;28;20414;-86
2022/04/24 05:29:51;;;;;;;31.37;23.80;;;;;;;;;;5057955;28;20411;-86
2022/04/24 05:32:17;;;;;;;32.97;23.40;;;;;;;;;;5057079;28;20442;-86
2022/04/24 05:34:43;;;;;;;32.17;22.80;;;;;;;;;;5057869;28;20399;-87
2022/04/24 05:37:09;;;;;;;36.13;24.73;;;;;;;;;;5057787;28;20422;-87
2022/04/24 05:39:36;;;;;;;28.20;21.03;;;;;;;;;;5057829;28;20434;-87
2022/04/24 05:42:02;;;;;;;35.60;23.57;;;;;;;;;;5057804;28;20423;-86
2022/04/24 05:44:28;;;;;;;31.53;21.37;;;;;;;;;;5040549;28;20406;-87
2022/04/24 05:46:54;;;;;;;30.97;23.43;;;;;;;;;;5057779;28;20414;-87
2022/04/24 05:49:20;;;;;;;36.03;22.30;;;;;;;;;;5057361;28;20395;-85
2022/04/24 05:51:46;;;;;;;31.30;21.77;;;;;;;;;;5040128;28;20430;-87
2022/04/24 05:54:15;;;;;;;26.40;20.53;;;;;;;;;;5057705;28;20410;-85
2022/04/24 05:56:41;;;;;;;33.47;22.83;;;;;;;;;;5040472;28;20410;-86
2022/04/24 05:59:08;;;;;;;29.70;21.27;;;;;;;;;;5057609;28;20413;-86
2022/04/24 06:01:34;;;;;;;27.40;20.43;;;;;;;;;;5057436;28;20441;-85
2022/04/24 06:04:00;;;;;;;28.13;20.60;;;;;;;;;;5057608;28;20470;-86
2022/04/24 06:06:29;;;;;;;24.60;18.80;;;;;;;;;;5040294;28;20406;-86
2022/04/24 06:08:55;;;;;;;27.03;19.83;;;;;;;;;;5057566;28;20406;-86
2022/04/24 06:11:21;;;;;;;28.47;20.27;;;;;;;;;;5057579;28;20415;-86
2022/04/24 06:13:47;;;;;;;30.37;19.13;;;;;;;;;;5040039;28;20470;-87
2022/04/24 06:16:13;;;;;;;24.27;18.40;;;;;;;;;;5057505;28;20386;-86
2022/04/24 06:18:39;;;;;;;30.27;19.87;;;;;;;;;;5057329;28;20481;-86
2022/04/24 06:21:05;;;;;;;26.20;17.10;;;;;;;;;;5057128;28;20449;-86
2022/04/24 06:23:31;;;;;;;21.50;16.10;;;;;;;;;;5040225;28;20398;-87
2022/04/24 06:25:58;;;;;;;23.67;18.43;;;;;;;;;;5057320;28;20402;-87
2022/04/24 06:28:24;;;;;;;25.23;17.17;;;;;;;;;;5057495;28;20402;-87
2022/04/24 06:30:51;;;;;;;24.07;16.60;;;;;;;;;;5057325;28;20414;-87
2022/04/24 06:33:18;;;;;;;20.73;15.83;;;;;;;;;;5040039;28;20454;-86
2022/04/24 06:35:47;;;;;;;20.47;15.40;;;;;;;;;;5057197;28;20408;-86
2022/04/24 06:38:13;;;;;;;17.70;13.80;;;;;;;;;;5057323;28;20420;-87
2022/04/24 06:40:39;;;;;;;22.03;15.37;;;;;;;;;;5039757;28;20436;-87
2022/04/24 06:43:06;;;;;;;17.17;13.43;;;;;;;;;;5057151;28;20399;-87
2022/04/24 06:45:33;;;;;;;18.23;12.57;;;;;;;;;;5060392;28;20444;-87
2022/04/24 06:48:01;;;;;;;16.87;12.77;;;;;;;;;;5042885;28;20425;-87
2022/04/24 06:50:28;;;;;;;14.10;10.70;;;;;;;;;;5060056;28;20419;-87
2022/04/24 06:53:00;;;;;;;14.57;8.40;;;;;;;;;;5060128;28;20457;-88
2022/04/24 06:55:27;;;;;;;9.67;7.93;;;;;;;;;;5042865;28;20421;-87
2022/04/24 06:57:53;;;;;;;10.13;5.17;;;;;;;;;;5042903;28;20445;-88
2022/04/24 07:00:20;;;;;;;6.27;4.47;;;;;;;;;;5060132;28;20414;-87
2022/04/24 07:02:46;;;;;;;3.83;2.83;;;;;;;;;;5060177;28;20406;-86
2022/04/24 07:05:13;;;;;;;5.10;2.90;;;;;;;;;;5059968;28;20414;-87
2022/04/24 07:07:39;;;;;;;4.37;2.73;;;;;;;;;;5060000;28;20399;-87
2022/04/24 07:10:05;;;;;;;4.03;2.63;;;;;;;;;;5059901;28;20505;-87
2022/04/24 07:12:31;;;;;;;6.00;2.50;;;;;;;;;;5042447;28;20469;-86
2022/04/24 07:14:57;;;;;;;5.40;1.93;;;;;;;;;;5059954;28;20398;-88
2022/04/24 07:17:23;;;;;;;3.90;2.50;;;;;;;;;;5059900;28;20424;-87
2022/04/24 07:19:49;;;;;;;2.80;2.00;;;;;;;;;;5042049;28;20441;-87
2022/04/24 07:22:17;;;;;;;3.33;2.17;;;;;;;;;;5113161;22;20484;-85
2022/04/24 07:24:43;;;;;;;7.10;2.03;;;;;;;;;;5082583;28;20776;-85
2022/04/24 07:27:09;;;;;;;3.67;2.43;;;;;;;;;;5082172;28;20385;-85
2022/04/24 07:29:35;;;;;;;2.40;1.60;;;;;;;;;;5081952;28;20408;-85
2022/04/24 07:32:01;;;;;;;3.30;2.07;;;;;;;;;;5082176;28;20515;-85
2022/04/24 07:34:27;;;;;;;2.70;1.63;;;;;;;;;;5081993;28;20424;-85
2022/04/24 07:36:53;;;;;;;3.17;2.07;;;;;;;;;;5081519;28;20764;-85
2022/04/24 07:39:19;;;;;;;2.23;1.33;;;;;;;;;;5081641;28;20404;-85
2022/04/24 07:41:45;;;;;;;2.43;1.60;;;;;;;;;;5081628;28;20489;-85
2022/04/24 07:44:11;;;;;;;2.27;1.63;;;;;;;;;;5081492;28;20833;-85
2022/04/24 07:46:37;;;;;;;2.33;1.37;;;;;;;;;;5081505;28;20835;-85
2022/04/24 07:49:03;;;;;;;6.93;1.33;;;;;;;;;;5082069;28;20401;-85
2022/04/24 07:51:29;;;;;;;2.47;1.57;;;;;;;;;;5081558;28;20929;-84
2022/04/24 07:53:55;;;;;;;1.73;1.20;;;;;;;;;;5081560;28;20514;-85
2022/04/24 07:56:21;;;;;;;2.30;1.63;;;;;;;;;;5063195;28;20450;-85
2022/04/24 07:58:47;;;;;;;2.30;1.20;;;;;;;;;;5081380;28;20408;-85
2022/04/24 08:01:16;;;;;;;2.17;1.33;;;;;;;;;;5081963;28;20440;-85
2022/04/24 08:03:42;;;;;;;2.20;1.60;;;;;;;;;;5081630;28;20413;-85
2022/04/24 08:06:08;;;;;;;2.33;1.40;;;;;;;;;;5081879;28;20408;-85
2022/04/24 08:08:34;;;;;;;6.00;1.40;;;;;;;;;;5063160;28;20434;-85
2022/04/24 08:11:00;;;;;;;2.10;1.30;;;;;;;;;;5081391;28;20850;-85
2022/04/24 08:13:26;;;;;;;5.20;1.30;;;;;;;;;;5080978;28;20995;-85
2022/04/24 08:15:53;;;;;;;2.03;1.57;;;;;;;;;;5063617;28;20848;-85
2022/04/24 08:18:20;;;;;;;2.00;1.23;;;;;;;;;;5082326;28;20488;-85
2022/04/24 08:20:46;;;;;;;1.80;1.40;;;;;;;;;;5086603;28;20455;-86
2022/04/24 08:23:15;;;;;;;2.13;0.90;;;;;;;;;;5081860;28;20419;-85
2022/04/24 08:25:41;;;;;;;1.80;1.30;;;;;;;;;;5089126;28;20522;-83
2022/04/24 08:28:08;;;;;;;1.93;1.30;;;;;;;;;;5098144;28;20504;-84
2022/04/24 08:30:35;;;;;;;1.80;0.90;;;;;;;;;;5084573;28;20424;-85
2022/04/24 08:33:01;;;;;;;3.43;1.30;;;;;;;;;;5080577;28;20467;-86
2022/04/24 08:35:27;;;;;;;1.83;1.10;;;;;;;;;;5080719;28;20401;-86
2022/04/24 08:37:53;;;;;;;1.60;1.10;;;;;;;;;;5082009;28;20433;-85
2022/04/24 08:40:21;;;;;;;1.70;1.20;;;;;;;;;;5080958;28;20441;-85
2022/04/24 08:42:47;;;;;;;1.90;1.20;;;;;;;;;;5085903;28;20435;-86
2022/04/24 08:45:16;;;;;;;2.33;1.30;;;;;;;;;;5081351;28;20903;-86
2022/04/24 08:47:43;;;;;;;1.77;1.30;;;;;;;;;;5080506;28;20813;-86
2022/04/24 08:50:09;;;;;;;3.63;1.10;;;;;;;;;;5081046;28;20461;-84
2022/04/24 08:52:36;;;;;;;1.60;1.03;;;;;;;;;;5080432;28;20952;-86
2022/04/24 08:55:05;;;;;;;1.40;0.80;;;;;;;;;;5064454;28;20754;-87
2022/04/24 08:57:31;;;;;;;1.80;1.17;;;;;;;;;;5081935;28;20412;-85
2022/04/24 08:59:58;;;;;;;3.57;1.03;;;;;;;;;;5081861;28;20396;-87
2022/04/24 09:02:24;;;;;;;2.03;1.03;;;;;;;;;;5063877;28;20936;-86
2022/04/24 09:04:52;;;;;;;1.73;0.90;;;;;;;;;;5080970;28;20472;-84
2022/04/24 09:07:19;;;;;;;1.30;0.80;;;;;;;;;;5080839;28;20408;-86
2022/04/24 09:09:46;;;;;;;1.60;1.07;;;;;;;;;;5081025;28;20767;-84
2022/04/24 09:12:32;;;;;;;1.90;0.97;;;;;;;;;;5066699;28;20452;-83
2022/04/24 09:14:59;;;;;;;2.13;1.10;;;;;;;;;;5093490;28;20397;-82
2022/04/24 09:17:26;;;;;;;1.80;1.20;;;;;;;;;;5084477;28;20397;-84
2022/04/24 09:19:53;;;;;;;1.63;1.10;;;;;;;;;;5080669;28;20768;-86
2022/04/24 09:22:19;;;;;;;1.70;0.93;;;;;;;;;;5080789;28;20511;-85
2022/04/24 09:24:48;;;;;;;2.37;1.10;;;;;;;;;;5080644;28;20408;-86
2022/04/24 09:27:24;;;;;;;1.50;1.00;;;;;;;;;;5080600;28;20409;-84
2022/04/24 09:29:51;;;;;;;1.40;0.80;;;;;;;;;;5079770;28;20405;-84
2022/04/24 09:32:17;;;;;;;1.40;0.70;;;;;;;;;;5062539;28;20551;-85
2022/04/24 09:34:43;;;;;;;1.83;0.83;;;;;;;;;;5080594;28;20734;-84
2022/04/24 09:37:09;;;;;;;2.13;1.00;;;;;;;;;;5079893;28;20401;-85
2022/04/24 09:39:37;;;;;;;1.40;0.90;;;;;;;;;;5062596;28;20405;-85
2022/04/24 09:42:04;;;;;;;1.40;0.80;;;;;;;;;;5080815;28;20439;-85
2022/04/24 09:44:40;;;;;;;1.50;0.90;;;;;;;;;;5080469;28;20450;-85
2022/04/24 09:47:07;;;;;;;1.63;0.90;;;;;;;;;;5087556;28;20400;-84
2022/04/24 09:49:37;;;;;;;1.50;0.87;;;;;;;;;;5079462;28;20408;-84
2022/04/24 09:52:04;;;;;;;2.40;1.00;;;;;;;;;;5077797;28;20427;-84
2022/04/24 09:54:31;;;;;;;1.90;1.17;;;;;;;;;;5077753;28;20770;-83
2022/04/24 09:56:58;;;;;;;2.70;1.03;;;;;;;;;;5077239;28;20416;-84
2022/04/24 09:59:25;;;;;;;1.73;0.80;;;;;;;;;;5078071;28;20490;-84
2022/04/24 10:01:52;;;;;;;1.50;0.90;;;;;;;;;;5077882;28;20425;-84
2022/04/24 10:04:18;;;;;;;1.40;0.70;;;;;;;;;;5079004;28;20431;-85
2022/04/24 10:06:45;;;;;;;1.50;0.80;;;;;;;;;;5079612;28;20409;-85
2022/04/24 10:09:13;;;;;;;1.70;0.83;;;;;;;;;;5080252;28;20404;-86
2022/04/24 10:11:39;;;;;;;2.03;1.10;;;;;;;;;;5062301;28;20433;-85
2022/04/24 10:14:07;;;;;;;1.40;0.70;;;;;;;;;;5078569;28;20966;-84
2022/04/24 10:16:39;;;;;;;1.67;0.70;;;;;;;;;;5076860;28;20455;-84
2022/04/24 10:19:13;;;;;;;2.30;0.97;;;;;;;;;;5079801;28;20894;-86
2022/04/24 10:21:52;;;;;;;1.53;0.80;;;;;;;;;;5082997;28;20952;-85
2022/04/24 10:24:18;;;;;;;4.43;1.07;;;;;;;;;;5082584;28;20392;-85
2022/04/24 10:27:01;;;;;;;1.60;0.87;;;;;;;;;;5080281;28;20404;-84
2022/04/24 10:29:28;;;;;;;5.83;2.33;;;;;;;;;;5080869;28;20381;-85
2022/04/24 10:31:54;;;;;;;1.30;0.70;;;;;;;;;;5083989;28;20803;-85
2022/04/24 10:34:22;;;;;;;1.60;0.93;;;;;;;;;;5083765;28;20768;-85
2022/04/24 10:36:55;;;;;;;1.87;1.00;;;;;;;;;;5084119;28;20404;-85
2022/04/24 10:39:22;;;;;;;1.60;0.90;;;;;;;;;;5084353;28;20405;-85
2022/04/24 10:41:59;;;;;;;2.33;1.00;;;;;;;;;;5065285;28;20425;-85
2022/04/24 10:44:26;;;;;;;2.53;0.80;;;;;;;;;;5066349;28;20426;-85
2022/04/24 10:46:54;;;;;;;1.40;0.90;;;;;;;;;;5083592;28;20803;-85
2022/04/24 10:49:20;;;;;;;1.60;0.80;;;;;;;;;;5095114;28;20385;-85
2022/04/24 10:51:58;;;;;;;1.80;0.87;;;;;;;;;;5096896;28;20440;-85
2022/04/24 10:54:38;;;;;;;1.50;0.80;;;;;;;;;;5067931;28;20405;-84
2022/04/24 10:57:17;;;;;;;2.30;1.20;;;;;;;;;;5085079;28;20393;-85
2022/04/24 10:59:55;;;;;;;1.63;1.10;;;;;;;;;;5084552;28;20419;-84
2022/04/24 11:02:24;;;;;;;2.80;0.80;;;;;;;;;;5087168;28;20467;-85
2022/04/24 11:05:07;;;;;;;1.60;1.10;;;;;;;;;;5083975;28;20468;-85
2022/04/24 11:07:33;;;;;;;1.93;0.90;;;;;;;;;;5083701;28;20401;-85
2022/04/24 11:10:03;;;;;;;1.40;0.80;;;;;;;;;;5084465;28;20408;-84
2022/04/24 11:12:33;;;;;;;1.80;0.90;;;;;;;;;;5083058;28;20456;-84
2022/04/24 11:15:07;;;;;;;1.90;0.90;;;;;;;;;;5083593;28;20401;-84
2022/04/24 11:17:33;;;;;;;2.13;1.10;;;;;;;;;;5083639;28;20393;-84
2022/04/24 11:20:04;;;;;;;2.17;0.80;;;;;;;;;;5083179;28;20430;-84
2022/04/24 11:22:33;;;;;;;1.40;0.80;;;;;;;;;;5066802;28;20979;-86
2022/04/24 11:25:00;;;;;;;2.73;0.90;;;;;;;;;;5099867;28;20443;-83
2022/04/24 11:27:27;;;;;;;1.50;0.90;;;;;;;;;;5088131;28;20768;-86
2022/04/24 11:29:53;;;;;;;1.50;0.80;;;;;;;;;;5083329;28;20832;-84
2022/04/24 11:32:19;;;;;;;1.80;1.10;;;;;;;;;;5082271;28;20456;-85
2022/04/24 11:34:47;;;;;;;1.53;0.87;;;;;;;;;;5081854;28;20420;-85
2022/04/24 11:37:13;;;;;;;1.50;0.80;;;;;;;;;;5063826;28;20412;-85
2022/04/24 11:39:39;;;;;;;1.40;0.70;;;;;;;;;;5082303;28;20441;-84
2022/04/24 11:42:06;;;;;;;1.93;0.93;;;;;;;;;;5083100;28;20431;-84
2022/04/24 11:50:14;;;;;;;2.33;1.00;;;;;;;;;;5091386;28;20399;-85
2022/04/24 11:52:43;;;;;;;1.77;0.77;;;;;;;;;;5090507;28;20436;-82
2022/04/24 11:55:11;;;;;;;1.53;0.80;;;;;;;;;;5073506;28;20420;-83
2022/04/24 11:57:37;;;;;;;1.40;0.80;;;;;;;;;;5087122;28;20405;-84
2022/04/24 12:00:05;;;;;;;1.50;0.80;;;;;;;;;;5081816;28;20392;-84
2022/04/24 12:02:31;;;;;;;1.40;0.80;;;;;;;;;;5081640;28;20841;-86
2022/04/24 12:04:57;;;;;;;2.03;1.10;;;;;;;;;;5082168;28;20405;-84
2022/04/24 12:07:33;;;;;;;1.43;0.93;;;;;;;;;;5081764;28;20535;-85
2022/04/24 12:10:01;;;;;;;1.40;0.80;;;;;;;;;;5081936;28;20404;-84
2022/04/24 12:12:27;;;;;;;1.60;0.83;;;;;;;;;;5081259;28;20482;-85
2022/04/24 12:14:53;;;;;;;1.87;0.90;;;;;;;;;;5081443;28;20464;-85
2022/04/24 12:17:20;;;;;;;1.60;0.90;;;;;;;;;;5081173;28;20515;-85
2022/04/24 12:19:50;;;;;;;1.50;0.90;;;;;;;;;;5082281;28;20739;-85
2022/04/24 12:22:16;;;;;;;1.33;0.70;;;;;;;;;;5083360;28;20487;-84
2022/04/24 12:24:44;;;;;;;3.20;0.93;;;;;;;;;;5095052;28;20405;-83
2022/04/24 12:27:12;;;;;;;1.30;0.70;;;;;;;;;;5093435;28;20405;-85
2022/04/24 12:29:58;;;;;;;1.77;1.00;;;;;;;;;;5064139;28;20421;-85
2022/04/24 12:32:27;;;;;;;1.50;0.97;;;;;;;;;;5081110;28;20466;-84
2022/04/24 12:34:54;;;;;;;1.90;0.97;;;;;;;;;;5081540;28;20447;-84
2022/04/24 12:37:30;;;;;;;1.50;0.80;;;;;;;;;;5062986;28;20404;-84
2022/04/24 12:39:56;;;;;;;1.60;0.80;;;;;;;;;;5080758;28;20397;-84
2022/04/24 12:42:24;;;;;;;1.70;0.80;;;;;;;;;;5062788;28;20918;-84
2022/04/24 12:44:51;;;;;;;4.90;0.90;;;;;;;;;;5064044;28;20446;-85
2022/04/24 12:47:17;;;;;;;1.63;1.00;;;;;;;;;;5081772;28;20476;-85
2022/04/24 12:49:47;;;;;;;1.70;0.83;;;;;;;;;;5081693;28;20483;-84
2022/04/24 12:52:13;;;;;;;2.00;1.00;;;;;;;;;;5063603;28;20443;-86
2022/04/24 12:54:39;;;;;;;1.57;0.97;;;;;;;;;;5080623;28;20412;-84
2022/04/24 12:57:06;;;;;;;1.50;0.73;;;;;;;;;;5082516;28;20427;-82
2022/04/24 12:59:34;;;;;;;1.30;0.60;;;;;;;;;;5083456;28;20396;-85
2022/04/24 13:02:01;;;;;;;1.90;0.97;;;;;;;;;;5081980;28;20450;-85
2022/04/24 13:04:27;;;;;;;2.93;1.10;;;;;;;;;;5081237;28;20958;-84
2022/04/24 13:06:53;;;;;;;2.27;1.10;;;;;;;;;;5064130;28;20423;-85
2022/04/24 13:09:19;;;;;;;1.50;0.80;;;;;;;;;;5080037;28;20397;-85
2022/04/24 13:11:45;;;;;;;3.30;1.00;;;;;;;;;;5081649;28;20531;-85
2022/04/24 13:14:11;;;;;;;1.40;0.80;;;;;;;;;;5081413;28;20812;-85
2022/04/24 13:19:24;;;;;;;1.63;1.10;;;;;;;;;;5093449;28;20381;-84
2022/04/24 13:21:52;;;;;;;2.80;1.17;;;;;;;;;;5148528;22;21056;-87
2022/04/24 13:24:18;;;;;;;1.70;0.93;;;;;;;;;;5073009;28;20408;-86
2022/04/24 13:26:44;;;;;;;1.80;1.00;;;;;;;;;;5064371;28;20404;-87
2022/04/24 13:29:10;;;;;;;2.33;1.10;;;;;;;;;;5083175;28;20408;-87
2022/04/24 13:31:36;;;;;;;1.40;0.80;;;;;;;;;;5082920;28;20424;-86
2022/04/24 13:34:02;;;;;;;2.20;1.20;;;;;;;;;;5083087;28;20444;-87
2022/04/24 13:36:28;;;;;;;1.80;1.00;;;;;;;;;;5082736;28;20415;-86
2022/04/24 13:38:54;;;;;;;2.10;1.00;;;;;;;;;;5084271;28;20401;-87
2022/04/24 13:41:20;;;;;;;2.70;0.97;;;;;;;;;;5083963;28;20790;-86
2022/04/24 13:43:48;;;;;;;2.10;1.27;;;;;;;;;;5066034;28;20408;-88
2022/04/24 13:46:14;;;;;;;1.63;0.90;;;;;;;;;;5083162;28;20419;-87
2022/04/24 13:48:40;;;;;;;2.53;1.20;;;;;;;;;;5083161;28;20412;-87
2022/04/24 13:51:07;;;;;;;1.60;1.00;;;;;;;;;;5083945;28;20436;-88
2022/04/24 13:53:33;;;;;;;2.30;1.20;;;;;;;;;;5083970;28;20455;-86
2022/04/24 13:55:59;;;;;;;2.10;1.10;;;;;;;;;;5086664;28;20434;-87
2022/04/24 13:58:26;;;;;;;2.47;1.20;;;;;;;;;;5068191;28;20486;-85
2022/04/24 14:00:56;;;;;;;5.00;1.10;;;;;;;;;;5086532;28;20472;-86
2022/04/24 14:03:23;;;;;;;1.80;1.37;;;;;;;;;;5087173;28;20400;-87
2022/04/24 14:05:49;;;;;;;2.20;1.63;;;;;;;;;;5088205;28;20828;-86
2022/04/24 14:08:16;;;;;;;2.60;1.07;;;;;;;;;;5089956;28;20409;-86
2022/04/24 14:10:43;;;;;;;2.20;1.13;;;;;;;;;;5090210;28;20417;-88
2022/04/24 14:13:09;;;;;;;2.00;1.30;;;;;;;;;;5089371;28;20463;-88
2022/04/24 14:15:36;;;;;;;2.40;1.20;;;;;;;;;;5088857;28;20418;-87
2022/04/24 14:18:02;;;;;;;1.60;0.83;;;;;;;;;;5070647;28;20436;-87
2022/04/24 14:20:28;;;;;;;2.90;1.20;;;;;;;;;;5087490;28;20401;-87
2022/04/24 14:22:56;;;;;;;1.73;1.00;;;;;;;;;;5087982;28;20466;-87
2022/04/24 14:25:23;;;;;;;1.80;1.00;;;;;;;;;;5086658;28;20441;-87
2022/04/24 14:27:49;;;;;;;1.83;1.23;;;;;;;;;;5086303;28;20412;-86
2022/04/24 14:30:15;;;;;;;2.53;1.03;;;;;;;;;;5085911;28;20499;-85
2022/04/24 14:32:42;;;;;;;2.23;1.33;;;;;;;;;;5066735;28;20455;-86
2022/04/24 14:35:09;;;;;;;2.53;1.40;;;;;;;;;;5086749;28;20783;-89
2022/04/24 14:37:35;;;;;;;1.73;1.20;;;;;;;;;;5087310;28;20397;-86